createdAt,value
2023-05-08T00:01:30.171Z,14.70
2023-05-08T00:03:57.585Z,14.60
2023-05-08T00:06:24.527Z,14.60
2023-05-08T00:08:51.621Z,14.60
2023-05-08T00:11:18.593Z,14.60
2023-05-08T00:13:45.715Z,14.60
2023-05-08T00:16:13.275Z,14.60
2023-05-08T00:18:40.288Z,14.60
2023-05-08T00:21:07.279Z,14.50
2023-05-08T00:23:34.451Z,14.50
2023-05-08T00:26:01.558Z,14.60
2023-05-08T00:28:28.600Z,14.60
2023-05-08T00:30:55.489Z,14.60
2023-05-08T00:33:22.505Z,14.60
2023-05-08T00:35:49.451Z,14.50
2023-05-08T00:38:16.312Z,14.60
2023-05-08T00:40:44.881Z,14.60
2023-05-08T00:43:11.721Z,14.60
2023-05-08T00:45:39.899Z,14.60
2023-05-08T00:48:07.134Z,14.50
2023-05-08T00:50:34.274Z,14.60
2023-05-08T00:53:03.058Z,14.50
2023-05-08T00:55:30.960Z,14.50
2023-05-08T00:57:58.117Z,14.60
2023-05-08T01:00:25.138Z,14.50
2023-05-08T01:02:52.492Z,14.60
2023-05-08T01:05:19.568Z,14.60
2023-05-08T01:07:46.821Z,14.60
2023-05-08T01:10:13.986Z,14.70
2023-05-08T01:12:45.158Z,14.60
2023-05-08T01:15:18.559Z,14.60
2023-05-08T01:18:04.227Z,14.70
2023-05-08T01:20:49.447Z,14.50
2023-05-08T01:23:22.313Z,14.50
2023-05-08T01:25:49.232Z,14.50
2023-05-08T01:28:22.497Z,14.40
2023-05-08T01:30:55.394Z,14.50
2023-05-08T01:33:48.634Z,14.50
2023-05-08T01:36:34.523Z,14.50
2023-05-08T01:39:20.696Z,14.50
2023-05-08T01:42:02.974Z,14.40
2023-05-08T01:44:33.794Z,14.40
2023-05-08T01:47:03.676Z,14.50
2023-05-08T01:49:37.140Z,14.50
2023-05-08T01:52:07.421Z,14.40
2023-05-08T01:54:39.572Z,14.50
2023-05-08T01:57:07.621Z,14.50
2023-05-08T01:59:34.863Z,14.50
2023-05-08T02:02:03.178Z,14.40
2023-05-08T02:04:30.650Z,14.50
2023-05-08T02:06:58.205Z,14.50
2023-05-08T02:09:27.000Z,14.50
2023-05-08T02:11:54.582Z,14.50
2023-05-08T02:14:22.391Z,14.50
2023-05-08T02:16:50.770Z,14.50
2023-05-08T02:19:18.878Z,14.40
2023-05-08T02:21:46.606Z,14.40
2023-05-08T02:24:14.440Z,14.50
2023-05-08T02:26:42.679Z,14.50
2023-05-08T02:29:09.986Z,14.60
2023-05-08T02:31:37.608Z,14.50
2023-05-08T02:34:05.348Z,14.50
2023-05-08T02:36:32.525Z,14.50
2023-05-08T02:39:00.487Z,14.50
2023-05-08T02:41:29.403Z,14.60
2023-05-08T02:43:56.553Z,14.50
2023-05-08T02:46:38.221Z,14.50
2023-05-08T02:49:09.383Z,14.40
2023-05-08T02:52:00.403Z,14.40
2023-05-08T02:54:58.081Z,14.30
2023-05-08T02:57:43.965Z,14.30
2023-05-08T03:00:31.243Z,14.40
2023-05-08T03:03:19.930Z,14.40
2023-05-08T03:05:57.878Z,14.40
2023-05-08T03:08:30.835Z,14.30
2023-05-08T03:10:59.043Z,14.30
2023-05-08T03:13:27.734Z,14.20
2023-05-08T03:15:56.365Z,14.30
2023-05-08T03:18:27.018Z,14.30
2023-05-08T03:20:55.193Z,14.20
2023-05-08T03:23:23.230Z,14.20
2023-05-08T03:25:51.353Z,14.20
2023-05-08T03:28:19.506Z,14.20
2023-05-08T03:30:47.069Z,14.20
2023-05-08T03:33:17.694Z,14.30
2023-05-08T03:35:45.251Z,14.40
2023-05-08T03:38:12.420Z,14.50
2023-05-08T03:40:40.069Z,14.40
2023-05-08T03:43:07.834Z,14.40
2023-05-08T03:45:36.855Z,14.40
2023-05-08T03:48:05.538Z,14.30
2023-05-08T03:50:35.583Z,14.30
2023-05-08T03:53:03.921Z,14.30
2023-05-08T03:55:31.703Z,14.30
2023-05-08T03:58:02.472Z,14.30
2023-05-08T04:00:36.895Z,14.30
2023-05-08T04:03:11.908Z,14.20
2023-05-08T04:05:43.724Z,14.20
2023-05-08T04:08:19.797Z,14.10
2023-05-08T04:10:49.917Z,14.10
2023-05-08T04:13:20.100Z,14.20
2023-05-08T04:16:07.783Z,14.20
2023-05-08T04:18:36.759Z,14.10
2023-05-08T04:21:06.743Z,14.20
2023-05-08T04:23:35.148Z,14.10
2023-05-08T04:26:04.145Z,14.20
2023-05-08T04:28:33.295Z,14.20
2023-05-08T04:31:01.490Z,14.20
2023-05-08T04:33:29.716Z,14.30
2023-05-08T04:35:57.915Z,14.20
2023-05-08T04:38:25.349Z,14.10
2023-05-08T04:40:52.853Z,14.20
2023-05-08T04:43:20.118Z,14.20
2023-05-08T04:45:47.233Z,14.20
2023-05-08T04:48:14.118Z,14.30
2023-05-08T04:50:41.406Z,14.20
2023-05-08T04:53:08.382Z,14.20
2023-05-08T04:55:35.249Z,14.20
2023-05-08T04:58:02.390Z,14.20
2023-05-08T05:00:29.390Z,14.20
2023-05-08T05:02:56.623Z,14.20
2023-05-08T05:05:23.775Z,14.10
2023-05-08T05:07:50.737Z,14.10
2023-05-08T05:10:19.352Z,14.20
2023-05-08T05:12:46.799Z,14.20
2023-05-08T05:15:14.403Z,14.30
2023-05-08T05:17:41.674Z,14.40
2023-05-08T05:20:09.024Z,14.40
2023-05-08T05:22:36.256Z,14.40
2023-05-08T05:25:04.025Z,14.40
2023-05-08T05:27:31.319Z,14.40
2023-05-08T05:29:58.626Z,14.40
2023-05-08T05:32:26.644Z,14.40
2023-05-08T05:34:54.464Z,14.50
2023-05-08T05:37:22.114Z,14.60
2023-05-08T05:39:49.277Z,14.60
2023-05-08T05:42:16.430Z,14.60
2023-05-08T05:44:43.489Z,14.60
2023-05-08T05:47:11.199Z,14.60
2023-05-08T05:49:43.026Z,14.70
2023-05-08T05:52:10.837Z,14.70
2023-05-08T05:54:38.276Z,14.70
2023-05-08T05:57:05.999Z,14.70
2023-05-08T05:59:33.033Z,14.70
2023-05-08T06:02:00.135Z,14.70
2023-05-08T06:04:27.224Z,14.60
2023-05-08T06:06:54.319Z,14.60
2023-05-08T06:09:21.650Z,14.60
2023-05-08T06:11:51.356Z,14.50
2023-05-08T06:14:18.426Z,14.50
2023-05-08T06:16:45.566Z,14.40
2023-05-08T06:19:12.548Z,14.50
2023-05-08T06:21:39.968Z,14.60
2023-05-08T06:24:07.886Z,14.70
2023-05-08T06:26:34.767Z,14.70
2023-05-08T06:29:01.630Z,14.70
2023-05-08T06:31:28.665Z,14.70
2023-05-08T06:33:55.816Z,14.70
2023-05-08T06:36:22.771Z,14.60
2023-05-08T06:38:49.674Z,14.60
2023-05-08T06:41:16.694Z,14.60
2023-05-08T06:43:43.666Z,14.60
2023-05-08T06:46:10.834Z,14.70
2023-05-08T06:48:37.823Z,14.60
2023-05-08T06:51:04.769Z,14.50
2023-05-08T06:53:31.616Z,14.60
2023-05-08T06:55:58.890Z,14.50
2023-05-08T06:58:26.009Z,14.50
2023-05-08T07:00:53.003Z,14.60
2023-05-08T07:03:20.014Z,14.50
2023-05-08T07:05:46.874Z,14.60
2023-05-08T07:08:13.699Z,14.60
2023-05-08T07:10:40.627Z,14.60
2023-05-08T07:13:07.575Z,14.60
2023-05-08T07:15:34.487Z,14.60
2023-05-08T07:18:02.014Z,14.70
2023-05-08T07:20:29.045Z,14.70
2023-05-08T07:22:56.025Z,14.60
2023-05-08T07:25:22.966Z,14.60
2023-05-08T07:27:49.889Z,14.70
2023-05-08T07:30:16.912Z,14.70
2023-05-08T07:32:43.942Z,14.80
2023-05-08T07:35:12.979Z,14.80
2023-05-08T07:37:40.219Z,14.70
2023-05-08T07:40:07.313Z,14.70
2023-05-08T07:42:43.783Z,14.60
2023-05-08T07:45:12.317Z,14.70
2023-05-08T07:47:48.219Z,14.70
2023-05-08T07:50:15.295Z,14.60
2023-05-08T07:52:42.115Z,14.60
2023-05-08T07:55:09.323Z,14.50
2023-05-08T07:57:40.257Z,14.70
2023-05-08T08:00:08.300Z,14.50
2023-05-08T08:02:41.164Z,14.60
2023-05-08T08:05:08.452Z,14.60
2023-05-08T08:07:35.503Z,14.60
2023-05-08T08:10:03.626Z,14.50
2023-05-08T08:12:31.456Z,14.70
2023-05-08T08:14:58.363Z,14.80
2023-05-08T08:17:26.897Z,14.90
2023-05-08T08:19:55.645Z,14.90
2023-05-08T08:22:22.868Z,14.90
2023-05-08T08:24:50.026Z,15.00
2023-05-08T08:27:18.074Z,15.20
2023-05-08T08:29:45.337Z,15.50
2023-05-08T08:32:12.318Z,15.70
2023-05-08T08:34:39.316Z,15.40
2023-05-08T08:37:06.935Z,15.30
2023-05-08T08:39:36.922Z,15.50
2023-05-08T08:42:04.018Z,15.90
2023-05-08T08:44:30.862Z,16.10
2023-05-08T08:46:58.438Z,16.10
2023-05-08T08:49:30.470Z,16.10
2023-05-08T08:52:07.584Z,15.80
2023-05-08T08:54:36.006Z,15.80
2023-05-08T08:57:08.019Z,15.80
2023-05-08T08:59:37.688Z,15.80
2023-05-08T09:02:11.722Z,15.90
2023-05-08T09:04:39.044Z,15.80
2023-05-08T09:07:08.606Z,15.80
2023-05-08T09:09:41.005Z,16.00
2023-05-08T09:12:08.332Z,16.00
2023-05-08T09:14:35.224Z,15.90
2023-05-08T09:17:02.598Z,15.80
2023-05-08T09:19:29.991Z,15.90
2023-05-08T09:21:59.477Z,16.00
2023-05-08T09:24:29.525Z,16.00
2023-05-08T09:26:57.647Z,16.00
2023-05-08T09:29:24.477Z,16.10
2023-05-08T09:31:52.370Z,16.20
2023-05-08T09:34:28.140Z,16.40
2023-05-08T09:36:55.925Z,16.50
2023-05-08T09:39:27.291Z,16.70
2023-05-08T09:42:20.383Z,16.90
2023-05-08T09:44:49.498Z,17.50
2023-05-08T09:47:17.604Z,18.10
2023-05-08T09:49:56.961Z,18.20
2023-05-08T09:52:24.855Z,18.50
2023-05-08T09:55:00.864Z,18.90
2023-05-08T09:57:28.392Z,19.00
2023-05-08T10:00:21.607Z,18.80
2023-05-08T10:02:56.409Z,18.70
2023-05-08T10:05:31.858Z,18.80
2023-05-08T10:07:59.801Z,18.70
2023-05-08T10:10:27.958Z,18.90
2023-05-08T10:12:56.215Z,18.80
2023-05-08T10:15:23.948Z,19.00
2023-05-08T10:17:55.835Z,19.10
2023-05-08T10:20:25.407Z,18.70
2023-05-08T10:22:53.254Z,18.50
2023-05-08T10:25:21.144Z,18.50
2023-05-08T10:27:53.165Z,18.60
2023-05-08T10:30:23.912Z,18.40
2023-05-08T10:32:54.175Z,18.00
2023-05-08T10:35:21.769Z,18.20
2023-05-08T10:38:13.430Z,18.10
2023-05-08T10:40:40.925Z,17.90
2023-05-08T10:43:09.257Z,17.80
2023-05-08T10:45:36.844Z,17.80
2023-05-08T10:48:07.756Z,17.90
2023-05-08T10:50:53.414Z,18.30
2023-05-08T10:53:39.683Z,17.90
2023-05-08T10:56:09.630Z,17.50
2023-05-08T10:58:37.397Z,17.20
2023-05-08T11:01:07.900Z,17.10
2023-05-08T11:03:39.456Z,17.20
2023-05-08T11:06:06.840Z,17.30
2023-05-08T11:08:42.964Z,17.40
2023-05-08T11:11:29.558Z,17.40
2023-05-08T11:13:56.528Z,17.70
2023-05-08T11:16:42.506Z,17.80
2023-05-08T11:19:17.047Z,17.80
2023-05-08T11:22:02.893Z,17.80
2023-05-08T11:24:35.189Z,17.90
2023-05-08T11:27:02.247Z,17.70
2023-05-08T11:29:29.388Z,17.90
2023-05-08T11:31:56.618Z,18.20
2023-05-08T11:34:56.021Z,18.20
2023-05-08T11:37:27.494Z,18.20
2023-05-08T11:39:54.435Z,18.30
2023-05-08T11:42:27.601Z,18.60
2023-05-08T11:45:00.396Z,19.30
2023-05-08T11:47:31.909Z,19.50
2023-05-08T11:49:59.450Z,19.50
2023-05-08T11:52:26.585Z,19.60
2023-05-08T11:54:53.892Z,19.50
2023-05-08T11:57:21.098Z,19.40
2023-05-08T11:59:52.028Z,19.60
2023-05-08T12:02:18.985Z,19.90
2023-05-08T12:04:47.164Z,19.70
2023-05-08T12:07:15.730Z,20.20
2023-05-08T12:09:42.645Z,20.30
2023-05-08T12:12:09.617Z,20.00
2023-05-08T12:14:36.562Z,19.40
2023-05-08T12:17:03.811Z,19.40
2023-05-08T12:19:30.744Z,19.20
2023-05-08T12:21:58.357Z,19.40
2023-05-08T12:24:26.869Z,19.50
2023-05-08T12:26:55.367Z,20.00
2023-05-08T12:29:23.156Z,19.90
2023-05-08T12:31:50.342Z,19.40
2023-05-08T12:34:17.357Z,19.40
2023-05-08T12:36:44.309Z,19.50
2023-05-08T12:39:15.735Z,19.40
2023-05-08T12:41:46.563Z,19.60
2023-05-08T12:44:23.530Z,19.60
2023-05-08T12:46:54.939Z,19.60
2023-05-08T12:49:29.000Z,19.60
2023-05-08T12:52:07.040Z,19.70
2023-05-08T12:54:34.094Z,20.30
2023-05-08T12:57:01.342Z,20.80
2023-05-08T12:59:29.001Z,20.80
2023-05-08T13:01:55.890Z,20.40
2023-05-08T13:04:22.979Z,19.90
2023-05-08T13:06:56.543Z,20.00
2023-05-08T13:09:23.724Z,19.70
2023-05-08T13:11:50.709Z,19.70
2023-05-08T13:14:17.736Z,19.80
2023-05-08T13:16:45.286Z,20.30
2023-05-08T13:19:12.493Z,20.40
2023-05-08T13:21:39.408Z,20.40
2023-05-08T13:24:06.639Z,20.00
2023-05-08T13:26:33.508Z,20.40
2023-05-08T13:29:00.799Z,20.00
2023-05-08T13:31:27.806Z,19.70
2023-05-08T13:33:54.995Z,19.20
2023-05-08T13:36:21.891Z,19.40
2023-05-08T13:38:48.969Z,19.70
2023-05-08T13:41:15.832Z,19.80
2023-05-08T13:43:42.876Z,19.80
2023-05-08T13:46:09.923Z,20.30
2023-05-08T13:48:36.830Z,20.20
2023-05-08T13:51:03.767Z,20.20
2023-05-08T13:53:30.635Z,20.90
2023-05-08T13:55:57.609Z,21.00
2023-05-08T13:58:24.633Z,21.10
2023-05-08T14:00:51.629Z,20.80
2023-05-08T14:03:18.555Z,20.80
2023-05-08T14:05:45.580Z,21.40
2023-05-08T14:08:12.461Z,21.90
2023-05-08T14:10:40.553Z,21.90
2023-05-08T14:13:07.596Z,21.60
2023-05-08T14:15:37.327Z,21.80
2023-05-08T14:18:04.688Z,22.80
2023-05-08T14:20:31.592Z,22.80
2023-05-08T14:23:00.076Z,22.80
2023-05-08T14:25:27.385Z,22.10
2023-05-08T14:27:54.367Z,21.90
2023-05-08T14:30:21.326Z,21.30
2023-05-08T14:32:48.260Z,21.00
2023-05-08T14:35:15.479Z,20.70
2023-05-08T14:37:42.491Z,20.90
2023-05-08T14:40:09.683Z,20.30
2023-05-08T14:42:36.635Z,20.60
2023-05-08T14:45:03.749Z,20.80
2023-05-08T14:47:33.020Z,20.60
2023-05-08T14:49:59.918Z,20.50
2023-05-08T14:52:26.879Z,20.60
2023-05-08T14:54:54.231Z,20.20
2023-05-08T14:57:21.448Z,20.40
2023-05-08T14:59:54.876Z,20.10
2023-05-08T15:02:23.504Z,20.40
2023-05-08T15:04:50.537Z,20.50
2023-05-08T15:07:17.611Z,20.50
2023-05-08T15:09:44.643Z,20.40
2023-05-08T15:12:11.623Z,20.10
2023-05-08T15:14:38.449Z,20.70
2023-05-08T15:17:05.361Z,21.50
2023-05-08T15:19:32.378Z,22.30
2023-05-08T15:21:59.632Z,23.60
2023-05-08T15:24:26.534Z,25.10
2023-05-08T15:26:53.371Z,24.80
2023-05-08T15:29:20.323Z,24.30
2023-05-08T15:31:47.400Z,23.60
2023-05-08T15:34:14.378Z,22.90
2023-05-08T15:36:41.525Z,22.60
2023-05-08T15:39:08.624Z,22.60
2023-05-08T15:41:37.272Z,22.50
2023-05-08T15:44:04.269Z,22.10
2023-05-08T15:46:31.235Z,22.30
2023-05-08T15:48:59.292Z,22.50
2023-05-08T15:51:27.332Z,23.40
2023-05-08T15:53:54.269Z,22.70
2023-05-08T15:56:24.457Z,22.20
2023-05-08T15:58:51.772Z,21.70
2023-05-08T16:01:19.131Z,21.80
2023-05-08T16:03:46.462Z,21.40
2023-05-08T16:06:13.487Z,21.50
2023-05-08T16:08:40.523Z,21.40
2023-05-08T16:11:07.423Z,20.90
2023-05-08T16:13:34.333Z,20.60
2023-05-08T16:16:07.758Z,20.70
2023-05-08T16:18:34.886Z,20.80
2023-05-08T16:21:01.732Z,20.80
2023-05-08T16:23:28.788Z,21.10
2023-05-08T16:25:55.613Z,21.00
2023-05-08T16:28:22.542Z,21.00
2023-05-08T16:30:49.568Z,20.70
2023-05-08T16:33:16.526Z,20.70
2023-05-08T16:35:43.432Z,20.40
2023-05-08T16:38:10.524Z,20.20
2023-05-08T16:40:37.466Z,20.60
2023-05-08T16:43:04.683Z,20.20
2023-05-08T16:45:31.673Z,20.30
2023-05-08T16:47:58.672Z,20.60
2023-05-08T16:50:25.562Z,20.50
2023-05-08T16:52:52.517Z,19.90
2023-05-08T16:55:19.598Z,19.80
2023-05-08T16:57:46.551Z,19.30
2023-05-08T17:00:13.788Z,19.30
2023-05-08T17:02:40.857Z,19.20
2023-05-08T17:05:08.025Z,19.20
2023-05-08T17:07:35.000Z,19.10
2023-05-08T17:10:01.932Z,19.10
2023-05-08T17:12:29.042Z,19.40
2023-05-08T17:14:56.991Z,19.50
2023-05-08T17:17:23.893Z,19.50
2023-05-08T17:19:50.766Z,19.30
2023-05-08T17:22:19.817Z,19.10
2023-05-08T17:24:46.804Z,19.20
2023-05-08T17:27:13.741Z,18.90
2023-05-08T17:29:40.676Z,18.80
2023-05-08T17:32:07.571Z,18.80
2023-05-08T17:34:34.546Z,18.60
2023-05-08T17:37:01.568Z,18.50
2023-05-08T17:39:28.542Z,18.40
2023-05-08T17:41:56.577Z,18.30
2023-05-08T17:44:23.521Z,18.30
2023-05-08T17:46:50.379Z,18.10
2023-05-08T17:49:19.286Z,18.00
2023-05-08T17:51:46.760Z,17.90
2023-05-08T17:54:13.756Z,17.80
2023-05-08T17:56:40.799Z,17.80
2023-05-08T17:59:07.675Z,17.60
2023-05-08T18:01:34.622Z,17.40
2023-05-08T18:04:01.528Z,17.40
2023-05-08T18:06:28.443Z,17.30
2023-05-08T18:08:55.417Z,17.20
2023-05-08T18:11:23.395Z,17.10
2023-05-08T18:13:50.809Z,16.90
2023-05-08T18:16:18.318Z,16.80
2023-05-08T18:18:45.362Z,17.00
2023-05-08T18:21:12.358Z,17.00
2023-05-08T18:23:39.350Z,16.80
2023-05-08T18:26:07.411Z,16.80
2023-05-08T18:28:36.232Z,16.80
2023-05-08T18:31:03.245Z,16.70
2023-05-08T18:33:30.089Z,16.80
2023-05-08T18:35:57.007Z,16.60
2023-05-08T18:38:23.988Z,16.60
2023-05-08T18:40:51.098Z,16.70
2023-05-08T18:43:18.135Z,16.70
2023-05-08T18:45:45.031Z,16.60
2023-05-08T18:48:11.955Z,16.60
2023-05-08T18:50:38.917Z,16.50
2023-05-08T18:53:06.506Z,16.40
2023-05-08T18:55:33.494Z,16.40
2023-05-08T18:58:00.353Z,16.30
2023-05-08T19:00:27.195Z,16.30
2023-05-08T19:02:54.139Z,16.30
2023-05-08T19:05:21.216Z,16.20
2023-05-08T19:07:48.169Z,16.20
2023-05-08T19:10:15.735Z,16.30
2023-05-08T19:12:43.757Z,16.20
2023-05-08T19:15:13.782Z,16.20
2023-05-08T19:17:41.073Z,16.10
2023-05-08T19:20:08.272Z,16.00
2023-05-08T19:22:36.121Z,16.00
2023-05-08T19:25:03.513Z,16.00
2023-05-08T19:27:32.075Z,16.00
2023-05-08T19:29:59.179Z,15.90
2023-05-08T19:32:26.278Z,15.90
2023-05-08T19:34:55.385Z,15.90
2023-05-08T19:37:22.345Z,15.80
2023-05-08T19:39:49.322Z,15.70
2023-05-08T19:42:16.310Z,15.70
2023-05-08T19:44:43.492Z,15.70
2023-05-08T19:47:10.474Z,15.80
2023-05-08T19:49:38.568Z,15.70
2023-05-08T19:52:05.747Z,15.60
2023-05-08T19:54:32.617Z,15.60
2023-05-08T19:56:59.482Z,15.50
2023-05-08T19:59:26.406Z,15.40
2023-05-08T20:01:53.959Z,15.20
2023-05-08T20:04:21.267Z,15.20
2023-05-08T20:06:48.227Z,15.10
2023-05-08T20:09:15.093Z,15.00
2023-05-08T20:11:41.971Z,15.00
2023-05-08T20:14:08.920Z,15.00
2023-05-08T20:16:36.048Z,15.00
2023-05-08T20:19:03.167Z,14.90
2023-05-08T20:21:32.483Z,14.90
2023-05-08T20:24:02.468Z,15.00
2023-05-08T20:26:29.609Z,14.90
2023-05-08T20:28:56.973Z,15.10
2023-05-08T20:31:25.796Z,15.10
2023-05-08T20:33:53.350Z,15.00
2023-05-08T20:36:20.742Z,14.70
2023-05-08T20:38:47.611Z,14.50
2023-05-08T20:41:14.476Z,14.40
2023-05-08T20:43:41.345Z,14.30
2023-05-08T20:46:08.446Z,14.30
2023-05-08T20:48:35.635Z,14.40
2023-05-08T20:51:02.511Z,14.40
2023-05-08T20:53:29.407Z,14.50
2023-05-08T20:56:00.037Z,14.40
2023-05-08T20:58:27.093Z,14.40
2023-05-08T21:00:54.047Z,14.30
2023-05-08T21:03:21.033Z,14.20
2023-05-08T21:05:47.925Z,14.10
2023-05-08T21:08:14.969Z,14.20
2023-05-08T21:10:42.005Z,14.20
2023-05-08T21:13:08.947Z,14.10
2023-05-08T21:15:35.935Z,14.10
2023-05-08T21:18:02.894Z,14.20
2023-05-08T21:20:29.790Z,14.20
2023-05-08T21:22:56.792Z,14.20
2023-05-08T21:25:23.827Z,14.30
2023-05-08T21:27:51.322Z,14.30
2023-05-08T21:30:19.310Z,14.30
2023-05-08T21:32:46.522Z,14.30
2023-05-08T21:35:13.730Z,14.20
2023-05-08T21:37:40.958Z,14.10
2023-05-08T21:40:08.319Z,14.10
2023-05-08T21:42:35.384Z,14.20
2023-05-08T21:45:02.376Z,14.20
2023-05-08T21:47:29.265Z,14.20
2023-05-08T21:49:56.224Z,14.30
2023-05-08T21:52:23.610Z,14.40
2023-05-08T21:54:50.666Z,14.50
2023-05-08T21:57:17.823Z,14.40
2023-05-08T21:59:44.855Z,14.30
2023-05-08T22:02:11.763Z,14.20
2023-05-08T22:04:38.672Z,14.20
2023-05-08T22:07:05.606Z,14.10
2023-05-08T22:09:32.604Z,14.00
2023-05-08T22:11:59.518Z,13.90
2023-05-08T22:14:26.399Z,13.90
2023-05-08T22:16:53.342Z,13.90
2023-05-08T22:19:20.198Z,14.00
2023-05-08T22:21:47.080Z,14.10
2023-05-08T22:24:15.091Z,14.20
2023-05-08T22:26:42.005Z,14.20
2023-05-08T22:29:08.880Z,14.30
2023-05-08T22:31:35.925Z,14.30
2023-05-08T22:34:02.803Z,14.20
2023-05-08T22:36:29.783Z,14.20
2023-05-08T22:38:56.734Z,14.20
2023-05-08T22:41:23.981Z,14.30
2023-05-08T22:43:52.125Z,14.60
2023-05-08T22:46:19.217Z,14.40
2023-05-08T22:48:47.199Z,14.40
2023-05-08T22:51:14.203Z,14.30
2023-05-08T22:53:42.233Z,14.40
2023-05-08T22:56:09.301Z,14.30
2023-05-08T22:58:36.264Z,14.30
2023-05-08T23:01:03.392Z,14.20
2023-05-08T23:03:30.264Z,14.20
2023-05-08T23:05:57.419Z,14.20
2023-05-08T23:08:24.389Z,14.00
2023-05-08T23:10:51.337Z,14.00
2023-05-08T23:13:18.393Z,14.00
2023-05-08T23:15:45.373Z,13.90
2023-05-08T23:18:12.278Z,13.90
2023-05-08T23:20:39.304Z,13.90
2023-05-08T23:23:07.026Z,13.80
2023-05-08T23:25:33.971Z,13.90
2023-05-08T23:28:00.867Z,14.00
2023-05-08T23:30:27.766Z,14.00
2023-05-08T23:32:54.653Z,13.80
2023-05-08T23:35:21.685Z,13.70
2023-05-08T23:37:48.705Z,13.60
2023-05-08T23:40:17.437Z,13.70
2023-05-08T23:42:44.436Z,13.70
2023-05-08T23:45:12.239Z,13.70
2023-05-08T23:47:39.769Z,13.70
2023-05-08T23:50:07.534Z,13.80
2023-05-08T23:52:34.857Z,13.90
2023-05-08T23:55:04.001Z,13.90
2023-05-08T23:57:34.560Z,13.90
